Time;durP1;ratioP1;P1;durP2;ratioP2;P2;SDS_P1;SDS_P2;PMS_P1;PMS_P2;Temp;Humidity;BMP_temperature;BMP_pressure;BME280_temperature;BME280_humidity;BME280_pressure;Samples;Min_cycle;Max_cycle;Signal;HPM_P1;HPM_P2
2023/08/24 00:01:03;;;;;;;;;8.00;6.33;;;;;-146.67;100.00;57155.34;5083196;28;8800;-76
2023/08/24 00:03:29;;;;;;;;;8.00;7.00;;;;;-146.67;100.00;57155.34;5083345;28;8851;-76
2023/08/24 00:05:54;;;;;;;;;6.33;5.67;;;;;-146.67;100.00;57155.34;5084953;28;8796;-75
2023/08/24 00:08:20;;;;;;;;;7.67;7.67;;;;;-146.67;100.00;57155.34;5084915;28;8801;-75
2023/08/24 00:10:46;;;;;;;;;6.00;6.00;;;;;-146.67;100.00;57155.34;5085254;28;8812;-75
2023/08/24 00:13:12;;;;;;;;;8.33;7.33;;;;;-146.67;100.00;57155.34;5084287;28;8795;-76
2023/08/24 00:15:39;;;;;;;;;5.67;5.00;;;;;-146.67;100.00;57155.34;5085010;28;9280;-76
2023/08/24 00:18:05;;;;;;;;;5.00;5.00;;;;;-146.67;100.00;57155.34;5066469;28;8809;-76
2023/08/24 00:20:32;;;;;;;;;7.00;7.00;;;;;-146.67;100.00;57155.34;5066265;28;9150;-76
2023/08/24 00:22:58;;;;;;;;;7.00;6.00;;;;;-146.67;100.00;57155.34;5066354;28;9996;-76
2023/08/24 00:25:24;;;;;;;;;7.00;7.00;;;;;-146.67;100.00;57155.34;5084678;28;9210;-76
2023/08/24 00:27:49;;;;;;;;;8.00;7.00;;;;;-146.67;100.00;57155.34;5084587;28;11367;-75
2023/08/24 00:30:15;;;;;;;;;7.00;6.00;;;;;-146.67;100.00;57155.34;5067705;28;9543;-75
2023/08/24 00:32:41;;;;;;;;;4.00;4.00;;;;;-146.67;100.00;57155.34;5064513;28;8799;-76
2023/08/24 00:35:09;;;;;;;;;7.00;7.00;;;;;-146.67;100.00;57155.34;5064448;28;8796;-75
2023/08/24 00:37:34;;;;;;;;;7.33;5.33;;;;;-146.67;100.00;57155.34;5064680;28;8739;-76
2023/08/24 00:40:04;;;;;;;;;7.33;6.33;;;;;-146.67;100.00;57155.34;5046136;28;9299;-76
2023/08/24 00:42:31;;;;;;;;;7.33;6.33;;;;;-146.67;100.00;57155.34;5064172;28;8751;-75
2023/08/24 00:44:58;;;;;;;;;6.67;4.67;;;;;-146.67;100.00;57155.34;5046484;28;9158;-75
2023/08/24 00:47:23;;;;;;;;;5.33;4.00;;;;;-146.67;100.00;57155.34;5064440;28;9224;-76
2023/08/24 00:49:49;;;;;;;;;8.67;5.00;;;;;-146.67;100.00;57155.34;5044406;28;9153;-76
2023/08/24 00:52:15;;;;;;;;;4.00;4.00;;;;;-146.67;100.00;57155.34;5042566;28;10145;-75
2023/08/24 00:54:41;;;;;;;;;6.00;6.00;;;;;-146.67;100.00;57155.34;5055120;28;8772;-75
2023/08/24 00:57:06;;;;;;;;;5.33;5.00;;;;;-146.67;100.00;57155.34;5065224;28;9290;-75
2023/08/24 00:59:33;;;;;;;;;8.00;5.00;;;;;-146.67;100.00;57155.34;5084023;28;8805;-75
2023/08/24 01:01:59;;;;;;;;;7.67;4.00;;;;;-146.67;100.00;57155.34;5084216;28;8769;-75
2023/08/24 01:04:25;;;;;;;;;5.67;5.67;;;;;-146.67;100.00;57155.34;5083468;28;9066;-75
2023/08/24 01:06:52;;;;;;;;;6.33;6.33;;;;;-146.67;100.00;57155.34;5084235;28;10474;-75
2023/08/24 01:09:18;;;;;;;;;5.33;4.67;;;;;-146.67;100.00;57155.34;5083570;28;8890;-75
2023/08/24 01:11:54;;;;;;;;;7.00;6.67;;;;;-146.67;100.00;57155.34;5083942;28;9492;-75
2023/08/24 01:14:54;;;;;;;;;4.00;4.00;;;;;-146.67;100.00;57155.34;5065884;28;9220;-76
2023/08/24 01:17:24;;;;;;;;;5.67;5.67;;;;;-146.67;100.00;57155.34;5084045;28;9077;-75
2023/08/24 01:19:50;;;;;;;;;5.00;5.00;;;;;-146.67;100.00;57155.34;5083077;28;9044;-75
2023/08/24 01:22:32;;;;;;;;;5.00;5.00;;;;;-146.67;100.00;57155.34;5065372;28;9980;-75
2023/08/24 01:25:08;;;;;;;;;9.00;8.00;;;;;-146.67;100.00;57155.34;5065408;28;9382;-75
2023/08/24 01:27:35;;;;;;;;;6.67;4.67;;;;;-146.67;100.00;57155.34;5083697;28;9251;-75
2023/08/24 01:30:03;;;;;;;;;6.67;6.00;;;;;-146.67;100.00;57155.34;5065616;28;9215;-75
2023/08/24 01:32:31;;;;;;;;;9.00;6.00;;;;;-146.67;100.00;57155.34;5065292;28;10884;-75
2023/08/24 01:34:57;;;;;;;;;6.00;6.00;;;;;-146.67;100.00;57155.34;5083436;28;9199;-75
2023/08/24 01:37:23;;;;;;;;;8.67;5.67;;;;;-146.67;100.00;57155.34;5065490;28;9342;-76
2023/08/24 01:40:12;;;;;;;;;7.00;7.00;;;;;-146.67;100.00;57155.34;5083479;28;8825;-75
2023/08/24 01:42:45;;;;;;;;;5.67;5.67;;;;;-146.67;100.00;57155.34;5083519;28;8876;-75
2023/08/24 01:45:12;;;;;;;;;9.00;7.67;;;;;-146.67;100.00;57155.34;5065415;28;9376;-75
2023/08/24 01:47:41;;;;;;;;;6.00;6.00;;;;;-146.67;100.00;57155.34;5081814;28;9206;-75
2023/08/24 01:50:07;;;;;;;;;7.67;6.33;;;;;-146.67;100.00;57155.34;5081321;28;9359;-75
2023/08/24 01:52:34;;;;;;;;;9.33;7.67;;;;;-146.67;100.00;57155.34;5064639;28;10240;-75
2023/08/24 01:54:59;;;;;;;;;7.00;5.67;;;;;-146.67;100.00;57155.34;5063946;28;9066;-75
2023/08/24 01:57:25;;;;;;;;;6.67;5.33;;;;;-146.67;100.00;57155.34;5063186;28;9217;-75
2023/08/24 01:59:50;;;;;;;;;5.33;5.33;;;;;-146.67;100.00;57155.34;5082272;28;8770;-75
2023/08/24 02:02:16;;;;;;;;;8.67;7.67;;;;;-146.67;100.00;57155.34;5081671;28;8829;-75
2023/08/24 02:04:42;;;;;;;;;8.33;7.67;;;;;-146.67;100.00;57155.34;5063301;28;8854;-75
2023/08/24 02:07:08;;;;;;;;;9.33;6.67;;;;;-146.67;100.00;57155.34;5081191;28;9299;-75
2023/08/24 02:09:33;;;;;;;;;5.67;5.67;;;;;-146.67;100.00;57155.34;5082769;28;8778;-75
2023/08/24 02:11:59;;;;;;;;;5.00;5.00;;;;;-146.67;100.00;57155.34;5083079;28;8817;-75
2023/08/24 02:14:24;;;;;;;;;5.67;5.67;;;;;-146.67;100.00;57155.34;5083200;28;8897;-75
2023/08/24 02:16:49;;;;;;;;;8.67;7.33;;;;;-146.67;100.00;57155.34;5064613;28;8811;-75
2023/08/24 02:19:15;;;;;;;;;6.00;6.00;;;;;-146.67;100.00;57155.34;5082454;28;8808;-75
2023/08/24 02:21:41;;;;;;;;;7.67;6.67;;;;;-146.67;100.00;57155.34;5064351;28;9066;-75
2023/08/24 02:24:07;;;;;;;;;6.33;6.00;;;;;-146.67;100.00;57155.34;5083022;28;9353;-75
2023/08/24 02:26:32;;;;;;;;;8.33;7.00;;;;;-146.67;100.00;57155.34;5064940;28;8806;-75
2023/08/24 02:28:58;;;;;;;;;7.67;6.67;;;;;-146.67;100.00;57155.34;5081521;28;8901;-75
2023/08/24 02:31:23;;;;;;;;;3.67;3.67;;;;;-146.67;100.00;57155.34;5064776;28;9920;-75
2023/08/24 02:33:49;;;;;;;;;9.67;7.33;;;;;-146.67;100.00;57155.34;5082153;28;8787;-75
2023/08/24 02:36:14;;;;;;;;;7.67;6.00;;;;;-146.67;100.00;57155.34;5082777;28;8783;-76
2023/08/24 02:38:40;;;;;;;;;7.00;6.00;;;;;-146.67;100.00;57155.34;5064589;28;8814;-75
2023/08/24 02:41:07;;;;;;;;;7.00;5.67;;;;;-146.67;100.00;57155.34;5082661;28;8802;-75
2023/08/24 02:43:33;;;;;;;;;7.00;7.00;;;;;-146.67;100.00;57155.34;5082578;28;8723;-75
2023/08/24 02:46:03;;;;;;;;;8.00;6.00;;;;;-146.67;100.00;57155.34;5082566;28;9272;-75
2023/08/24 02:48:29;;;;;;;;;6.67;4.67;;;;;-146.67;100.00;57155.34;5064308;28;9498;-75
2023/08/24 02:50:54;;;;;;;;;6.25;6.25;;;;;-146.67;100.00;57155.34;5063381;28;9859;-75
2023/08/24 02:53:19;;;;;;;;;4.67;4.67;;;;;-146.67;100.00;57155.34;5064398;28;11352;-75
2023/08/24 02:55:45;;;;;;;;;7.00;6.00;;;;;-146.67;100.00;57155.34;5082300;28;8825;-75
2023/08/24 02:58:10;;;;;;;;;8.00;7.00;;;;;-146.67;100.00;57155.34;5074215;28;8926;-75
2023/08/24 03:00:38;;;;;;;;;5.67;4.00;;;;;-146.67;100.00;57155.34;5102908;28;8817;-75
2023/08/24 03:03:05;;;;;;;;;5.33;5.00;;;;;-146.67;100.00;57155.34;5102189;28;8769;-75
2023/08/24 03:05:32;;;;;;;;;4.33;3.33;;;;;-146.67;100.00;57155.34;5083827;28;9371;-75
2023/08/24 03:07:58;;;;;;;;;6.33;6.33;;;;;-146.67;100.00;57155.34;5102609;28;9461;-75
2023/08/24 03:10:23;;;;;;;;;7.33;7.00;;;;;-146.67;100.00;57155.34;5084287;28;9987;-75
2023/08/24 03:12:49;;;;;;;;;3.50;3.50;;;;;-146.67;100.00;57155.34;5084159;28;9505;-75
2023/08/24 03:15:14;;;;;;;;;5.33;5.33;;;;;-146.67;100.00;57155.34;5102626;28;8891;-75
2023/08/24 03:17:40;;;;;;;;;5.67;5.67;;;;;-146.67;100.00;57155.34;5102664;28;8803;-75
2023/08/24 03:20:06;;;;;;;;;7.00;7.00;;;;;-146.67;100.00;57155.34;5102473;28;8776;-75
2023/08/24 03:22:31;;;;;;;;;7.67;5.00;;;;;-146.67;100.00;57155.34;5105963;28;8769;-76
2023/08/24 03:24:56;;;;;;;;;9.00;7.67;;;;;-146.67;100.00;57155.34;5105810;28;12162;-75
2023/08/24 03:27:22;;;;;;;;;9.67;8.67;;;;;-146.67;100.00;57155.34;5087970;28;8916;-75
2023/08/24 03:29:47;;;;;;;;;7.33;6.67;;;;;-146.67;100.00;57155.34;5092904;28;8818;-75
2023/08/24 03:32:13;;;;;;;;;7.33;6.33;;;;;-146.67;100.00;57155.34;5085510;28;8841;-75
2023/08/24 03:34:38;;;;;;;;;7.33;6.00;;;;;-146.67;100.00;57155.34;5084931;28;8808;-76
2023/08/24 03:37:03;;;;;;;;;8.00;8.00;;;;;-146.67;100.00;57155.34;5067088;28;8933;-75
2023/08/24 03:39:29;;;;;;;;;5.33;4.00;;;;;-146.67;100.00;57155.34;5067493;28;9874;-75
2023/08/24 03:41:54;;;;;;;;;8.00;5.33;;;;;-146.67;100.00;57155.34;5085544;28;8828;-75
2023/08/24 03:44:21;;;;;;;;;8.67;7.00;;;;;-146.67;100.00;57155.34;5067208;28;8813;-75
2023/08/24 03:46:46;;;;;;;;;5.33;5.00;;;;;-146.67;100.00;57155.34;5085463;28;8799;-76
2023/08/24 03:49:12;;;;;;;;;10.33;8.67;;;;;-146.67;100.00;57155.34;5082818;28;9709;-75
2023/08/24 03:51:37;;;;;;;;;8.33;6.33;;;;;-146.67;100.00;57155.34;5066837;28;8900;-75
2023/08/24 03:54:03;;;;;;;;;7.33;6.33;;;;;-146.67;100.00;57155.34;5085060;28;8864;-75
2023/08/24 03:56:28;;;;;;;;;9.33;7.33;;;;;-146.67;100.00;57155.34;5085296;28;8782;-75
2023/08/24 03:58:53;;;;;;;;;8.00;7.00;;;;;-146.67;100.00;57155.34;5085098;28;9826;-75
2023/08/24 04:01:19;;;;;;;;;5.67;4.67;;;;;-146.67;100.00;57155.34;5083790;28;8802;-75
2023/08/24 04:03:44;;;;;;;;;6.25;4.75;;;;;-146.67;100.00;57155.34;5084549;28;8887;-75
2023/08/24 04:06:10;;;;;;;;;6.00;5.00;;;;;-146.67;100.00;57155.34;5085174;28;8810;-75
2023/08/24 04:08:35;;;;;;;;;8.67;7.00;;;;;-146.67;100.00;57155.34;5085064;28;8801;-75
2023/08/24 04:11:01;;;;;;;;;6.00;6.00;;;;;-146.67;100.00;57155.34;5066840;28;8902;-75
2023/08/24 04:13:26;;;;;;;;;11.33;9.67;;;;;-146.67;100.00;57155.34;5066915;28;9635;-75
2023/08/24 04:15:52;;;;;;;;;7.33;7.33;;;;;-146.67;100.00;57155.34;5067186;28;8791;-75
2023/08/24 04:18:17;;;;;;;;;8.00;7.00;;;;;-146.67;100.00;57155.34;5083915;28;8797;-76
2023/08/24 04:20:43;;;;;;;;;6.33;5.33;;;;;-146.67;100.00;57155.34;5084743;28;8807;-75
2023/08/24 04:23:10;;;;;;;;;10.00;7.00;;;;;-146.67;100.00;57155.34;5084458;28;8794;-75
2023/08/24 04:25:39;;;;;;;;;9.00;8.00;;;;;-146.67;100.00;57155.34;5066763;28;8808;-75
2023/08/24 04:28:05;;;;;;;;;9.33;6.67;;;;;-146.67;100.00;57155.34;5085009;28;9456;-75
2023/08/24 04:30:30;;;;;;;;;8.67;6.33;;;;;-146.67;100.00;57155.34;5084529;28;9578;-75
2023/08/24 04:32:56;;;;;;;;;8.00;7.33;;;;;-146.67;100.00;57155.34;5083168;28;9294;-75
2023/08/24 04:35:24;;;;;;;;;7.00;6.00;;;;;-146.67;100.00;57155.34;5084277;28;8723;-75
2023/08/24 04:37:50;;;;;;;;;7.00;7.00;;;;;-146.67;100.00;57155.34;5084672;28;8735;-75
2023/08/24 04:40:15;;;;;;;;;7.67;6.00;;;;;-146.67;100.00;57155.34;5066441;28;9534;-75
2023/08/24 04:42:41;;;;;;;;;11.00;7.00;;;;;-146.67;100.00;57155.34;5084685;28;8810;-75
2023/08/24 04:45:07;;;;;;;;;7.67;7.67;;;;;-146.67;100.00;57155.34;5084485;28;8814;-75
2023/08/24 04:47:32;;;;;;;;;6.33;6.33;;;;;-146.67;100.00;57155.34;5082749;28;10178;-75
2023/08/24 04:49:58;;;;;;;;;8.33;8.00;;;;;-146.67;100.00;57155.34;5065599;28;9418;-75
2023/08/24 04:52:28;;;;;;;;;8.33;7.00;;;;;-146.67;100.00;57155.34;5084157;28;8826;-75
2023/08/24 04:54:53;;;;;;;;;8.67;8.67;;;;;-146.67;100.00;57155.34;5084404;28;8828;-75
2023/08/24 04:57:19;;;;;;;;;7.00;5.67;;;;;-146.67;100.00;57155.34;5084155;28;9398;-76
2023/08/24 04:59:44;;;;;;;;;7.50;5.75;;;;;-146.67;100.00;57155.34;5084429;28;8910;-75
2023/08/24 05:02:10;;;;;;;;;6.00;6.00;;;;;-146.67;100.00;57155.34;5084008;28;8786;-75
2023/08/24 05:04:35;;;;;;;;;7.00;7.00;;;;;-146.67;100.00;57155.34;5065764;28;8798;-75
2023/08/24 05:07:00;;;;;;;;;7.33;6.67;;;;;-146.67;100.00;57155.34;5084438;28;8787;-75
2023/08/24 05:09:26;;;;;;;;;7.33;7.33;;;;;-146.67;100.00;57155.34;5082886;28;9295;-78
2023/08/24 05:11:51;;;;;;;;;5.00;5.00;;;;;-146.67;100.00;57155.34;5066151;28;8920;-75
2023/08/24 05:14:17;;;;;;;;;8.00;8.00;;;;;-146.67;100.00;57155.34;5082563;28;8794;-77
2023/08/24 05:16:42;;;;;;;;;8.67;6.67;;;;;-146.67;100.00;57155.34;5083617;28;8798;-75
2023/08/24 05:19:07;;;;;;;;;6.33;6.00;;;;;-146.67;100.00;57155.34;5083458;28;8794;-76
2023/08/24 05:21:33;;;;;;;;;9.00;6.00;;;;;-146.67;100.00;57155.34;5083179;28;8801;-76
2023/08/24 05:23:58;;;;;;;;;4.67;4.67;;;;;-146.67;100.00;57155.34;5083632;28;8887;-76
2023/08/24 05:26:24;;;;;;;;;6.67;6.67;;;;;-146.67;100.00;57155.34;5083236;28;8856;-76
2023/08/24 05:28:50;;;;;;;;;7.33;7.00;;;;;-146.67;100.00;57155.34;5064852;28;8811;-76
2023/08/24 05:31:16;;;;;;;;;6.33;6.33;;;;;-146.67;100.00;57155.34;5064753;28;8921;-77
2023/08/24 05:33:41;;;;;;;;;8.33;5.00;;;;;-146.67;100.00;57155.34;5079067;28;9426;-76
2023/08/24 05:36:07;;;;;;;;;5.00;5.00;;;;;-146.67;100.00;57155.34;5075340;28;9851;-76
2023/08/24 05:38:32;;;;;;;;;6.00;5.00;;;;;-146.67;100.00;57155.34;5079921;28;8892;-76
2023/08/24 05:40:57;;;;;;;;;6.67;5.67;;;;;-146.67;100.00;57155.34;5081558;28;9741;-75
2023/08/24 05:43:23;;;;;;;;;4.67;4.67;;;;;-146.67;100.00;57155.34;5079790;28;8927;-76
2023/08/24 05:45:48;;;;;;;;;6.00;5.00;;;;;-146.67;100.00;57155.34;5081142;28;8801;-76
2023/08/24 05:48:14;;;;;;;;;6.00;6.00;;;;;-146.67;100.00;57155.34;5063606;28;8813;-75
2023/08/24 05:50:46;;;;;;;;;7.00;6.00;;;;;-146.67;100.00;57155.34;5064243;28;8825;-76
2023/08/24 05:53:12;;;;;;;;;6.33;5.33;;;;;-146.67;100.00;57155.34;5082586;28;8699;-76
2023/08/24 05:55:38;;;;;;;;;5.67;5.67;;;;;-146.67;100.00;57155.34;5082751;28;9344;-76
2023/08/24 05:58:04;;;;;;;;;9.67;7.00;;;;;-146.67;100.00;57155.34;5064801;28;9422;-76
2023/08/24 06:00:29;;;;;;;;;8.67;6.00;;;;;-146.67;100.00;57155.34;5082789;28;8774;-76
2023/08/24 06:02:55;;;;;;;;;7.00;5.33;;;;;-146.67;100.00;57155.34;5082126;28;8785;-76
2023/08/24 06:05:20;;;;;;;;;9.33;7.67;;;;;-146.67;100.00;57155.34;5082818;28;8781;-76
2023/08/24 06:07:46;;;;;;;;;5.00;4.00;;;;;-146.67;100.00;57155.34;5082552;28;8821;-76
2023/08/24 06:10:12;;;;;;;;;6.33;6.33;;;;;-146.67;100.00;57155.34;5082150;28;8778;-77
2023/08/24 06:12:37;;;;;;;;;2.67;2.67;;;;;-146.67;100.00;57155.34;5080930;28;8773;-76
2023/08/24 06:15:04;;;;;;;;;6.67;5.67;;;;;-146.67;100.00;57155.34;5062295;28;10013;-77
2023/08/24 06:17:49;;;;;;;;;5.00;5.00;;;;;-146.67;100.00;57155.34;5078619;28;8743;-76
2023/08/24 06:20:15;;;;;;;;;10.33;9.00;;;;;-146.67;100.00;57155.34;5060550;28;9338;-76
2023/08/24 06:22:41;;;;;;;;;5.67;5.00;;;;;-146.67;100.00;57155.34;5079996;28;9426;-76
2023/08/24 06:25:08;;;;;;;;;6.67;6.33;;;;;-146.67;100.00;57155.34;5066301;28;9984;-76
2023/08/24 06:27:34;;;;;;;;;7.33;6.67;;;;;-146.67;100.00;57155.34;5081959;28;9188;-77
2023/08/24 06:30:00;;;;;;;;;6.33;6.33;;;;;-146.67;100.00;57155.34;5080978;28;9410;-76
2023/08/24 06:32:25;;;;;;;;;7.67;6.33;;;;;-146.67;100.00;57155.34;5080580;28;8789;-77
2023/08/24 06:34:51;;;;;;;;;7.00;6.00;;;;;-146.67;100.00;57155.34;5081197;28;8774;-79
2023/08/24 06:37:17;;;;;;;;;5.00;5.00;;;;;-146.67;100.00;57155.34;5082313;28;8786;-75
2023/08/24 06:39:42;;;;;;;;;7.33;6.00;;;;;-146.67;100.00;57155.34;5063530;28;8813;-75
2023/08/24 06:42:08;;;;;;;;;7.00;6.00;;;;;-146.67;100.00;57155.34;5063919;28;8771;-80
2023/08/24 06:44:33;;;;;;;;;6.00;6.00;;;;;-146.67;100.00;57155.34;5063605;28;9894;-78
2023/08/24 06:46:59;;;;;;;;;6.00;6.00;;;;;-146.67;100.00;57155.34;5081975;28;8892;-80
2023/08/24 06:49:25;;;;;;;;;7.67;7.67;;;;;-146.67;100.00;57155.34;5081614;28;8779;-80
2023/08/24 06:51:50;;;;;;;;;8.00;8.00;;;;;-146.67;100.00;57155.34;5081995;28;8821;-79
2023/08/24 06:54:15;;;;;;;;;8.33;7.67;;;;;-146.67;100.00;57155.34;5062820;28;10032;-76
2023/08/24 06:56:41;;;;;;;;;7.67;6.67;;;;;-146.67;100.00;57155.34;5082345;28;8770;-77
2023/08/24 06:59:07;;;;;;;;;7.00;5.67;;;;;-146.67;100.00;57155.34;5081446;28;9666;-77
2023/08/24 07:01:32;;;;;;;;;8.00;6.67;;;;;-146.67;100.00;57155.34;5082712;28;8807;-77
2023/08/24 07:03:58;;;;;;;;;7.33;5.00;;;;;-146.67;100.00;57155.34;5081766;28;8793;-77
2023/08/24 07:06:23;;;;;;;;;8.33;6.00;;;;;-146.67;100.00;57155.34;5082060;28;8770;-77
2023/08/24 07:08:49;;;;;;;;;6.33;6.00;;;;;-146.67;100.00;57155.34;5063824;28;8793;-77
2023/08/24 07:11:15;;;;;;;;;8.00;6.67;;;;;-146.67;100.00;57155.34;5081974;28;9652;-81
2023/08/24 07:13:40;;;;;;;;;8.00;7.00;;;;;-146.67;100.00;57155.34;5081757;28;9308;-76
2023/08/24 07:16:05;;;;;;;;;8.33;8.33;;;;;-146.67;100.00;57155.34;5082245;28;8785;-76
2023/08/24 07:18:31;;;;;;;;;7.33;7.33;;;;;-146.67;100.00;57155.34;5081652;28;8816;-76
2023/08/24 07:20:56;;;;;;;;;5.67;5.67;;;;;-146.67;100.00;57155.34;5080085;28;8867;-76
2023/08/24 07:23:22;;;;;;;;;9.00;5.00;;;;;-146.67;100.00;57155.34;5081785;28;9685;-76
2023/08/24 07:25:48;;;;;;;;;6.67;6.67;;;;;-146.67;100.00;57155.34;5063941;28;8812;-76
2023/08/24 07:28:13;;;;;;;;;8.00;7.00;;;;;-146.67;100.00;57155.34;5081909;28;8868;-76
2023/08/24 07:30:39;;;;;;;;;8.33;6.67;;;;;-146.67;100.00;57155.34;5063476;28;9289;-76
2023/08/24 07:33:04;;;;;;;;;7.00;6.00;;;;;-146.67;100.00;57155.34;5063818;28;10022;-76
2023/08/24 07:35:29;;;;;;;;;7.67;7.00;;;;;-146.67;100.00;57155.34;5080941;28;9677;-76
2023/08/24 07:37:55;;;;;;;;;7.33;7.33;;;;;-146.67;100.00;57155.34;5060348;28;9009;-75
2023/08/24 07:40:21;;;;;;;;;5.67;5.67;;;;;-146.67;100.00;57155.34;5066849;28;8793;-76
2023/08/24 07:42:50;;;;;;;;;5.67;5.67;;;;;-146.67;100.00;57155.34;5059952;28;11461;-75
2023/08/24 07:45:16;;;;;;;;;7.00;7.00;;;;;-146.67;100.00;57155.34;5061440;28;8783;-75
2023/08/24 07:47:42;;;;;;;;;8.67;7.33;;;;;-146.67;100.00;57155.34;5063732;28;9027;-76
2023/08/24 07:50:09;;;;;;;;;10.00;8.00;;;;;-146.67;100.00;57155.34;5072863;28;8779;-75
2023/08/24 07:52:34;;;;;;;;;9.00;6.67;;;;;-146.67;100.00;57155.34;5071561;28;8766;-75
2023/08/24 07:55:03;;;;;;;;;9.33;7.67;;;;;-146.67;100.00;57155.34;5043464;28;8953;-75
2023/08/24 07:57:28;;;;;;;;;7.33;6.33;;;;;-146.67;100.00;57155.34;5061714;28;8868;-75
2023/08/24 07:59:54;;;;;;;;;8.33;7.00;;;;;-146.67;100.00;57155.34;5061059;28;9041;-75
2023/08/24 08:02:20;;;;;;;;;9.33;8.33;;;;;-146.67;100.00;57155.34;5061623;28;8801;-75
2023/08/24 08:04:46;;;;;;;;;10.00;9.00;;;;;-146.67;100.00;57155.34;5061422;28;8844;-75
2023/08/24 08:07:11;;;;;;;;;8.33;7.00;;;;;-146.67;100.00;57155.34;5064379;28;9161;-75
2023/08/24 08:09:37;;;;;;;;;9.00;8.00;;;;;-146.67;100.00;57155.34;5063433;28;8952;-75
2023/08/24 08:12:03;;;;;;;;;13.33;9.00;;;;;-146.67;100.00;57155.34;5065177;28;8800;-75
2023/08/24 08:14:29;;;;;;;;;10.33;10.33;;;;;-146.67;100.00;57155.34;5064572;28;9749;-75
2023/08/24 08:16:54;;;;;;;;;10.00;8.33;;;;;-146.67;100.00;57155.34;5065124;28;9328;-75
2023/08/24 08:19:21;;;;;;;;;9.00;9.00;;;;;-146.67;100.00;57155.34;5062867;28;8821;-75
2023/08/24 08:21:47;;;;;;;;;11.67;11.67;;;;;-146.67;100.00;57155.34;5064779;28;8773;-75
2023/08/24 08:24:12;;;;;;;;;8.00;8.00;;;;;-146.67;100.00;57155.34;5064184;28;9308;-75
2023/08/24 08:26:38;;;;;;;;;10.00;9.00;;;;;-146.67;100.00;57155.34;5064439;28;8907;-75
2023/08/24 08:29:03;;;;;;;;;11.67;10.00;;;;;-146.67;100.00;57155.34;5067649;28;8778;-75
2023/08/24 08:31:29;;;;;;;;;10.67;10.67;;;;;-146.67;100.00;57155.34;5066200;28;9871;-75
2023/08/24 08:33:54;;;;;;;;;12.67;10.67;;;;;-146.67;100.00;57155.34;5066225;28;8810;-75
2023/08/24 08:36:19;;;;;;;;;10.67;10.67;;;;;-146.67;100.00;57155.34;5084435;28;8782;-75
2023/08/24 08:38:45;;;;;;;;;10.00;10.00;;;;;-146.67;100.00;57155.34;5084007;28;8783;-75
2023/08/24 08:41:12;;;;;;;;;11.67;8.67;;;;;-146.67;100.00;57155.34;5084591;28;8832;-75
2023/08/24 08:43:38;;;;;;;;;9.00;9.00;;;;;-146.67;100.00;57155.34;5066050;28;8818;-75
2023/08/24 08:46:03;;;;;;;;;7.67;7.00;;;;;-146.67;100.00;57155.34;5066445;28;9038;-75
2023/08/24 08:48:32;;;;;;;;;9.67;9.00;;;;;-146.67;100.00;57155.34;5065604;28;9031;-75
2023/08/24 08:50:58;;;;;;;;;8.00;7.00;;;;;-146.67;100.00;57155.34;5083827;28;8751;-75
2023/08/24 08:53:23;;;;;;;;;8.00;8.00;;;;;-146.67;100.00;57155.34;5084197;28;9160;-75
2023/08/24 08:55:53;;;;;;;;;8.00;7.00;;;;;-146.67;100.00;57155.34;5083897;28;8857;-75
2023/08/24 08:58:20;;;;;;;;;7.33;7.33;;;;;-146.67;100.00;57155.34;5084008;28;8747;-76
2023/08/24 09:00:47;;;;;;;;;9.33;8.00;;;;;-146.67;100.00;57155.34;5065737;28;10008;-75
2023/08/24 09:03:15;;;;;;;;;10.00;7.67;;;;;-146.67;100.00;57155.34;5082566;28;9246;-75
2023/08/24 09:05:41;;;;;;;;;6.67;6.67;;;;;-146.67;100.00;57155.34;5083465;28;9197;-75
2023/08/24 09:08:06;;;;;;;;;9.33;8.00;;;;;-146.67;100.00;57155.34;5083870;28;8921;-75
2023/08/24 09:10:32;;;;;;;;;7.33;7.33;;;;;-146.67;100.00;57155.34;5083810;28;8802;-76
2023/08/24 09:12:57;;;;;;;;;9.00;9.00;;;;;-146.67;100.00;57155.34;5083665;28;8771;-75
2023/08/24 09:15:27;;;;;;;;;7.00;7.00;;;;;-146.67;100.00;57155.34;5084096;28;8767;-75
2023/08/24 09:17:55;;;;;;;;;7.33;7.00;;;;;-146.67;100.00;57155.34;5081948;28;8779;-75
2023/08/24 09:20:20;;;;;;;;;8.67;8.67;;;;;-146.67;100.00;57155.34;5064856;28;10197;-75
2023/08/24 09:22:46;;;;;;;;;6.33;6.33;;;;;-146.67;100.00;57155.34;5082113;28;9034;-75
2023/08/24 09:25:11;;;;;;;;;7.33;7.33;;;;;-146.67;100.00;57155.34;5065632;28;8787;-75
2023/08/24 09:27:36;;;;;;;;;8.00;8.00;;;;;-146.67;100.00;57155.34;5083589;28;9057;-75
2023/08/24 09:30:02;;;;;;;;;6.00;6.00;;;;;-146.67;100.00;57155.34;5065570;28;9942;-75
2023/08/24 09:32:32;;;;;;;;;8.00;6.67;;;;;-146.67;100.00;57155.34;5083205;28;8906;-75
2023/08/24 09:35:08;;;;;;;;;12.67;8.33;;;;;-146.67;100.00;57155.34;5082979;28;8950;-75
2023/08/24 09:37:35;;;;;;;;;7.33;6.33;;;;;-146.67;100.00;57155.34;5083153;28;9074;-75
2023/08/24 09:40:08;;;;;;;;;7.33;7.33;;;;;-146.67;100.00;57155.34;5065469;28;10287;-76
2023/08/24 09:42:41;;;;;;;;;7.67;7.67;;;;;-146.67;100.00;57155.34;5083821;28;9115;-75
2023/08/24 09:45:10;;;;;;;;;6.33;6.33;;;;;-146.67;100.00;57155.34;5065269;28;9043;-76
2023/08/24 09:47:36;;;;;;;;;10.33;7.00;;;;;-146.67;100.00;57155.34;5083153;28;9724;-75
2023/08/24 09:50:02;;;;;;;;;8.00;8.00;;;;;-146.67;100.00;57155.34;5082653;28;9059;-75
2023/08/24 09:52:32;;;;;;;;;7.00;7.00;;;;;-146.67;100.00;57155.34;5083054;28;10848;-75
2023/08/24 09:55:04;;;;;;;;;7.67;7.67;;;;;-146.67;100.00;57155.34;5070721;28;8792;-75
2023/08/24 09:57:35;;;;;;;;;7.67;7.00;;;;;-146.67;100.00;57155.34;5063308;28;8817;-75
2023/08/24 10:00:01;;;;;;;;;7.00;7.00;;;;;-146.67;100.00;57155.34;5062759;28;9130;-75
2023/08/24 10:02:34;;;;;;;;;7.00;5.67;;;;;-146.67;100.00;57155.34;5063090;28;9125;-75
2023/08/24 10:05:00;;;;;;;;;4.33;4.33;;;;;-146.67;100.00;57155.34;5062480;28;8856;-75
2023/08/24 10:07:26;;;;;;;;;7.67;7.00;;;;;-146.67;100.00;57155.34;5062940;28;9043;-75
2023/08/24 10:10:04;;;;;;;;;7.33;7.00;;;;;-146.67;100.00;57155.34;5062799;28;9181;-75
2023/08/24 10:12:37;;;;;;;;;9.00;7.67;;;;;-146.67;100.00;57155.34;5044906;28;8943;-75
2023/08/24 10:15:11;;;;;;;;;6.00;6.00;;;;;-146.67;100.00;57155.34;5062738;28;9048;-75
2023/08/24 10:17:37;;;;;;;;;10.67;9.33;;;;;-146.67;100.00;57155.34;5044856;28;8897;-75
2023/08/24 10:20:06;;;;;;;;;6.67;5.67;;;;;-146.67;100.00;57155.34;5061509;28;9208;-75
2023/08/24 10:22:34;;;;;;;;;7.33;7.33;;;;;-146.67;100.00;57155.34;5063026;28;8935;-75
2023/08/24 10:25:00;;;;;;;;;6.67;6.33;;;;;-146.67;100.00;57155.34;5062467;28;9074;-75
2023/08/24 10:27:28;;;;;;;;;8.67;7.00;;;;;-146.67;100.00;57155.34;5044961;28;9415;-76
2023/08/24 10:29:53;;;;;;;;;9.67;9.00;;;;;-146.67;100.00;57155.34;5073775;28;10131;-76
2023/08/24 10:32:21;;;;;;;;;3.67;3.67;;;;;-146.67;100.00;57155.34;5042553;28;9227;-75
2023/08/24 10:34:47;;;;;;;;;5.33;5.33;;;;;-146.67;100.00;57155.34;5041951;28;8830;-75
2023/08/24 10:37:12;;;;;;;;;9.00;9.00;;;;;-146.67;100.00;57155.34;5041122;28;9184;-75
2023/08/24 10:39:45;;;;;;;;;8.67;6.67;;;;;-146.67;100.00;57155.34;5042637;28;8806;-75
2023/08/24 10:42:11;;;;;;;;;13.00;12.00;;;;;-146.67;100.00;57155.34;5024532;28;8755;-75
2023/08/24 10:44:39;;;;;;;;;8.25;8.25;;;;;-146.67;100.00;57155.34;5042549;28;10291;-75
2023/08/24 10:47:07;;;;;;;;;11.00;10.33;;;;;-146.67;100.00;57155.34;5042343;28;8830;-75
2023/08/24 10:49:33;;;;;;;;;13.00;12.67;;;;;-146.67;100.00;57155.34;5041347;28;9168;-76
2023/08/24 10:52:17;;;;;;;;;9.67;9.67;;;;;-146.67;100.00;57155.34;5042349;28;9421;-75
2023/08/24 10:54:44;;;;;;;;;11.33;9.33;;;;;-146.67;100.00;57155.34;5052359;28;8898;-75
2023/08/24 10:57:20;;;;;;;;;13.00;11.67;;;;;-146.67;100.00;57155.34;5044374;28;9273;-75
2023/08/24 10:59:45;;;;;;;;;7.67;7.67;;;;;-146.67;100.00;57155.34;5062180;28;10051;-76
2023/08/24 11:02:19;;;;;;;;;10.00;8.00;;;;;-146.67;100.00;57155.34;5044168;28;9122;-75
2023/08/24 11:05:04;;;;;;;;;9.00;9.00;;;;;-146.67;100.00;57155.34;5061685;28;8869;-75
2023/08/24 11:07:29;;;;;;;;;7.67;7.67;;;;;-146.67;100.00;57155.34;5044441;28;9150;-75
2023/08/24 11:09:55;;;;;;;;;8.33;8.00;;;;;-146.67;100.00;57155.34;5062294;28;9397;-75
2023/08/24 11:12:20;;;;;;;;;10.33;9.00;;;;;-146.67;100.00;57155.34;5062108;28;8820;-75